createdAt,value
2023-04-16T00:01:44.368Z,16.13
2023-04-16T00:04:21.095Z,10.07
2023-04-16T00:06:50.334Z,9.60
2023-04-16T00:09:20.758Z,7.25
2023-04-16T00:11:49.435Z,7.63
2023-04-16T00:14:17.908Z,7.28
2023-04-16T00:16:46.715Z,5.60
2023-04-16T00:19:17.284Z,6.80
2023-04-16T00:21:45.869Z,6.53
2023-04-16T00:24:14.924Z,6.25
2023-04-16T00:26:46.413Z,8.73
2023-04-16T00:29:15.544Z,12.82
2023-04-16T00:31:46.379Z,9.30
2023-04-16T00:34:14.869Z,7.18
2023-04-16T00:36:45.259Z,7.35
2023-04-16T00:39:13.717Z,6.63
2023-04-16T00:41:44.034Z,9.98
2023-04-16T00:44:15.247Z,7.35
2023-04-16T00:46:44.261Z,10.07
2023-04-16T00:49:13.818Z,9.50
2023-04-16T00:51:42.402Z,10.20
2023-04-16T00:54:11.216Z,9.70
2023-04-16T00:56:41.790Z,8.32
2023-04-16T00:59:11.238Z,11.55
2023-04-16T01:01:40.904Z,8.48
2023-04-16T01:04:15.150Z,8.05
2023-04-16T01:06:46.732Z,9.57
2023-04-16T01:09:17.861Z,11.55
2023-04-16T01:11:48.666Z,13.63
2023-04-16T01:14:16.983Z,9.98
2023-04-16T01:16:45.926Z,11.68
2023-04-16T01:19:14.928Z,11.30
2023-04-16T01:21:46.647Z,12.85
2023-04-16T01:24:15.020Z,17.80
2023-04-16T01:26:44.932Z,14.13
2023-04-16T01:29:17.592Z,19.63
2023-04-16T01:31:47.185Z,19.50
2023-04-16T01:34:25.811Z,18.33
2023-04-16T01:36:56.857Z,15.07
2023-04-16T01:39:25.665Z,17.67
2023-04-16T01:41:54.960Z,14.00
2023-04-16T01:44:23.468Z,16.42
2023-04-16T01:46:54.751Z,9.30
2023-04-16T01:49:23.432Z,17.25
2023-04-16T01:51:51.820Z,11.98
2023-04-16T01:54:20.527Z,16.30
2023-04-16T01:56:49.371Z,14.68
2023-04-16T01:59:18.447Z,17.88
2023-04-16T02:01:47.052Z,17.98
2023-04-16T02:04:15.979Z,10.60
2023-04-16T02:06:44.917Z,15.95
2023-04-16T02:09:16.331Z,16.90
2023-04-16T02:11:45.762Z,15.45
2023-04-16T02:14:14.890Z,15.95
2023-04-16T02:16:44.423Z,14.73
2023-04-16T02:19:20.238Z,18.35
2023-04-16T02:21:54.929Z,13.55
2023-04-16T02:24:23.820Z,19.58
2023-04-16T02:26:52.958Z,17.15
2023-04-16T02:29:22.679Z,21.40
2023-04-16T02:31:59.660Z,15.15
2023-04-16T02:34:31.579Z,13.10
2023-04-16T02:37:02.355Z,13.50
2023-04-16T02:39:31.995Z,14.05
2023-04-16T02:42:02.496Z,11.73
2023-04-16T02:44:32.512Z,11.15
2023-04-16T02:47:03.393Z,12.65
2023-04-16T02:49:32.272Z,12.70
2023-04-16T02:52:00.596Z,17.27
2023-04-16T02:54:30.647Z,15.23
2023-04-16T02:57:02.311Z,12.35
2023-04-16T02:59:30.980Z,13.48
2023-04-16T03:02:05.266Z,7.70
2023-04-16T03:04:34.987Z,13.10
2023-04-16T03:07:03.306Z,7.72
2023-04-16T03:09:34.176Z,10.50
2023-04-16T03:12:03.245Z,11.45
2023-04-16T03:14:36.076Z,11.48
2023-04-16T03:17:07.104Z,10.95
2023-04-16T03:19:39.316Z,11.90
2023-04-16T03:22:08.082Z,12.30
2023-04-16T03:24:39.667Z,9.35
2023-04-16T03:27:09.406Z,8.55
2023-04-16T03:29:42.168Z,12.07
2023-04-16T03:32:12.542Z,10.15
2023-04-16T03:34:41.218Z,11.80
2023-04-16T03:37:12.067Z,15.55
2023-04-16T03:39:41.534Z,14.93
2023-04-16T03:42:14.418Z,11.07
2023-04-16T03:44:42.994Z,9.60
2023-04-16T03:47:11.360Z,9.95
2023-04-16T03:49:40.442Z,10.85
2023-04-16T03:52:08.997Z,8.77
2023-04-16T03:54:42.117Z,12.30
2023-04-16T03:57:24.349Z,9.88
2023-04-16T03:59:55.952Z,11.57
2023-04-16T04:02:26.584Z,17.13
2023-04-16T04:04:57.746Z,11.43
2023-04-16T04:07:30.791Z,10.48
2023-04-16T04:10:03.338Z,19.08
2023-04-16T04:12:41.289Z,11.98
2023-04-16T04:15:10.250Z,8.65
2023-04-16T04:17:47.978Z,10.02
2023-04-16T04:20:16.607Z,13.05
2023-04-16T04:22:47.104Z,14.77
2023-04-16T04:25:17.436Z,11.02
2023-04-16T04:27:46.181Z,15.27
2023-04-16T04:30:14.754Z,12.00
2023-04-16T04:32:54.035Z,13.70
2023-04-16T04:35:23.526Z,13.68
2023-04-16T04:37:52.767Z,11.82
2023-04-16T04:40:22.754Z,16.00
2023-04-16T04:42:53.607Z,13.80
2023-04-16T04:45:25.644Z,11.40
2023-04-16T04:47:57.887Z,13.98
2023-04-16T04:50:31.425Z,16.05
2023-04-16T04:52:59.754Z,16.60
2023-04-16T04:55:29.176Z,11.95
2023-04-16T04:58:00.026Z,11.80
2023-04-16T05:00:32.926Z,20.45
2023-04-16T05:03:20.301Z,15.68
2023-04-16T05:05:51.748Z,11.90
2023-04-16T05:08:20.099Z,16.38
2023-04-16T05:10:48.336Z,17.63
2023-04-16T05:13:16.904Z,15.88
2023-04-16T05:15:46.109Z,15.07
2023-04-16T05:18:15.833Z,18.95
2023-04-16T05:20:44.250Z,16.98
2023-04-16T05:23:12.971Z,13.00
2023-04-16T05:25:43.926Z,25.20
2023-04-16T05:28:13.416Z,18.00
2023-04-16T05:30:42.267Z,18.70
2023-04-16T05:33:27.901Z,15.02
2023-04-16T05:35:56.342Z,14.10
2023-04-16T05:38:24.813Z,18.80
2023-04-16T05:40:54.942Z,17.20
2023-04-16T05:43:23.298Z,17.67
2023-04-16T05:45:52.802Z,16.88
2023-04-16T05:48:23.520Z,15.02
2023-04-16T05:50:52.366Z,15.30
2023-04-16T05:53:21.292Z,15.32
2023-04-16T05:55:52.778Z,16.35
2023-04-16T05:58:21.606Z,13.15
2023-04-16T06:00:52.842Z,17.73
2023-04-16T06:03:35.808Z,16.25
2023-04-16T06:06:08.823Z,14.88
2023-04-16T06:08:42.497Z,17.13
2023-04-16T06:11:10.823Z,15.73
2023-04-16T06:13:43.128Z,14.13
2023-04-16T06:16:14.587Z,16.10
2023-04-16T06:18:47.533Z,20.45
2023-04-16T06:21:16.552Z,21.38
2023-04-16T06:23:46.259Z,16.95
2023-04-16T06:26:15.007Z,14.95
2023-04-16T06:28:44.989Z,18.77
2023-04-16T06:31:15.891Z,17.58
2023-04-16T06:33:50.812Z,15.85
2023-04-16T06:36:21.507Z,13.13
2023-04-16T06:38:52.653Z,13.95
2023-04-16T06:41:22.728Z,17.77
2023-04-16T06:43:51.508Z,14.27
2023-04-16T06:46:20.401Z,14.18
2023-04-16T06:48:49.097Z,13.75
2023-04-16T06:51:17.844Z,15.88
2023-04-16T06:53:48.339Z,14.05
2023-04-16T06:56:16.904Z,13.55
2023-04-16T06:58:45.942Z,14.18
2023-04-16T07:01:14.393Z,16.60
2023-04-16T07:03:46.909Z,16.83
2023-04-16T07:06:16.026Z,12.93
2023-04-16T07:08:47.518Z,17.88
2023-04-16T07:11:16.339Z,17.33
2023-04-16T07:13:47.578Z,17.30
2023-04-16T07:16:16.434Z,15.82
2023-04-16T07:18:45.302Z,12.43
2023-04-16T07:21:14.009Z,16.67
2023-04-16T07:23:43.074Z,13.32
2023-04-16T07:26:12.547Z,15.98
2023-04-16T07:28:41.325Z,16.38
2023-04-16T07:31:10.795Z,15.38
2023-04-16T07:33:44.314Z,17.45
2023-04-16T07:36:12.806Z,15.75
2023-04-16T07:38:42.525Z,18.52
2023-04-16T07:41:11.505Z,21.50
2023-04-16T07:43:39.821Z,22.52
2023-04-16T07:46:08.181Z,18.83
2023-04-16T07:48:39.336Z,19.27
2023-04-16T07:51:08.007Z,17.83
2023-04-16T07:53:38.794Z,13.93
2023-04-16T07:56:07.202Z,16.95
2023-04-16T07:58:39.184Z,13.00
2023-04-16T08:01:07.596Z,17.15
2023-04-16T08:03:44.153Z,17.80
2023-04-16T08:06:15.690Z,20.00
2023-04-16T08:08:45.349Z,16.88
2023-04-16T08:11:16.132Z,17.23
2023-04-16T08:13:45.993Z,20.15
2023-04-16T08:16:14.653Z,17.08
2023-04-16T08:18:46.681Z,21.13
2023-04-16T08:21:16.212Z,16.33
2023-04-16T08:23:49.155Z,16.48
2023-04-16T08:26:18.652Z,24.10
2023-04-16T08:28:49.350Z,14.93
2023-04-16T08:31:18.880Z,16.58
2023-04-16T08:33:50.034Z,22.98
2023-04-16T08:36:19.247Z,16.45
2023-04-16T08:38:48.900Z,15.48
2023-04-16T08:41:18.601Z,17.77
2023-04-16T08:43:49.794Z,18.38
2023-04-16T08:46:23.280Z,23.80
2023-04-16T08:48:59.601Z,18.58
2023-04-16T08:51:31.138Z,21.20
2023-04-16T08:54:09.630Z,15.40
2023-04-16T08:56:38.802Z,14.80
2023-04-16T08:59:10.730Z,14.15
2023-04-16T09:01:41.609Z,20.92
2023-04-16T09:04:10.833Z,16.92
2023-04-16T09:06:41.676Z,14.40
2023-04-16T09:09:10.600Z,15.18
2023-04-16T09:11:40.065Z,16.58
2023-04-16T09:14:10.598Z,14.52
2023-04-16T09:16:41.077Z,13.38
2023-04-16T09:19:10.137Z,17.83
2023-04-16T09:21:40.012Z,18.23
2023-04-16T09:24:09.663Z,12.57
2023-04-16T09:26:39.651Z,18.17
2023-04-16T09:29:09.771Z,13.05
2023-04-16T09:31:39.102Z,19.02
2023-04-16T09:34:08.569Z,17.25
2023-04-16T09:36:38.049Z,12.68
2023-04-16T09:39:06.599Z,15.68
2023-04-16T09:41:39.543Z,15.70
2023-04-16T09:44:08.635Z,13.70
2023-04-16T09:46:43.801Z,15.07
2023-04-16T09:49:15.453Z,13.98
2023-04-16T09:51:47.228Z,15.60
2023-04-16T09:54:16.230Z,11.85
2023-04-16T09:56:46.110Z,29.55
2023-04-16T09:59:21.173Z,17.70
2023-04-16T10:01:57.280Z,15.85
2023-04-16T10:04:46.405Z,14.48
2023-04-16T10:07:16.329Z,15.13
2023-04-16T10:09:44.892Z,15.07
2023-04-16T10:12:13.842Z,14.73
2023-04-16T10:14:43.010Z,16.15
2023-04-16T10:17:14.565Z,13.10
2023-04-16T10:19:45.388Z,16.65
2023-04-16T10:22:20.148Z,13.05
2023-04-16T10:24:50.021Z,12.45
2023-04-16T10:27:19.868Z,13.60
2023-04-16T10:29:50.633Z,11.93
2023-04-16T10:32:21.854Z,11.35
2023-04-16T10:34:53.931Z,12.00
2023-04-16T10:37:30.289Z,12.38
2023-04-16T10:40:01.940Z,12.07
2023-04-16T10:42:42.893Z,9.63
2023-04-16T10:45:21.866Z,15.88
2023-04-16T10:47:50.163Z,12.93
2023-04-16T10:50:21.764Z,10.23
2023-04-16T10:53:11.358Z,13.35
2023-04-16T10:55:41.311Z,14.50
2023-04-16T10:58:39.029Z,12.38
2023-04-16T11:01:12.291Z,12.32
2023-04-16T11:03:45.424Z,13.38
2023-04-16T11:06:17.755Z,15.18
2023-04-16T11:08:54.576Z,9.63
2023-04-16T11:11:28.558Z,11.45
2023-04-16T11:13:57.966Z,11.90
2023-04-16T11:16:28.748Z,11.90
2023-04-16T11:18:57.621Z,12.18
2023-04-16T11:21:26.735Z,15.32
2023-04-16T11:23:55.159Z,9.55
2023-04-16T11:26:28.726Z,11.77
2023-04-16T11:28:57.531Z,8.52
2023-04-16T11:31:27.535Z,10.50
2023-04-16T11:33:56.726Z,8.40
2023-04-16T11:36:27.393Z,10.32
2023-04-16T11:39:02.194Z,11.85
2023-04-16T11:41:34.089Z,11.55
2023-04-16T11:44:17.446Z,8.32
2023-04-16T11:46:48.615Z,9.15
2023-04-16T11:49:17.801Z,8.68
2023-04-16T11:51:48.202Z,7.13
2023-04-16T11:54:21.147Z,10.60
2023-04-16T11:56:50.400Z,9.15
2023-04-16T11:59:21.194Z,8.93
2023-04-16T12:01:55.648Z,9.52
2023-04-16T12:04:29.332Z,9.63
2023-04-16T12:07:11.333Z,7.18
2023-04-16T12:09:43.483Z,9.73
2023-04-16T12:12:32.545Z,7.60
2023-04-16T12:15:03.733Z,9.00
2023-04-16T12:17:35.667Z,7.60
2023-04-16T12:20:16.163Z,7.53
2023-04-16T12:22:49.356Z,7.03
2023-04-16T12:25:18.655Z,8.27
2023-04-16T12:27:53.009Z,8.38
2023-04-16T12:30:26.125Z,8.27
2023-04-16T12:33:19.662Z,7.28
2023-04-16T12:35:48.861Z,8.25
2023-04-16T12:38:17.478Z,9.88
2023-04-16T12:40:46.172Z,7.43
2023-04-16T12:43:14.704Z,7.50
2023-04-16T12:45:43.173Z,7.68
2023-04-16T12:48:11.634Z,10.25
2023-04-16T12:50:40.586Z,8.50
2023-04-16T12:53:09.352Z,6.80
2023-04-16T12:55:38.314Z,6.68
2023-04-16T12:58:07.194Z,8.27
2023-04-16T13:00:38.937Z,7.15
2023-04-16T13:03:24.668Z,6.43
2023-04-16T13:05:53.640Z,8.57
2023-04-16T13:08:23.063Z,6.95
2023-04-16T13:10:51.531Z,8.55
2023-04-16T13:13:21.098Z,10.10
2023-04-16T13:15:52.522Z,8.65
2023-04-16T13:18:21.990Z,9.65
2023-04-16T13:20:50.398Z,11.25
2023-04-16T13:23:18.933Z,11.60
2023-04-16T13:25:48.435Z,6.97
2023-04-16T13:28:19.198Z,8.82
2023-04-16T13:30:47.780Z,8.07
2023-04-16T13:33:29.430Z,8.25
2023-04-16T13:35:58.831Z,7.70
2023-04-16T13:38:27.812Z,8.90
2023-04-16T13:40:56.051Z,10.60
2023-04-16T13:43:24.816Z,11.13
2023-04-16T13:45:53.995Z,8.80
2023-04-16T13:48:22.621Z,10.55
2023-04-16T13:50:51.335Z,10.27
2023-04-16T13:53:20.590Z,7.80
2023-04-16T13:55:49.593Z,9.32
2023-04-16T13:58:18.116Z,7.43
2023-04-16T14:00:47.673Z,10.90
2023-04-16T14:03:36.295Z,10.25
2023-04-16T14:06:07.719Z,11.18
2023-04-16T14:08:36.452Z,13.20
2023-04-16T14:11:06.331Z,9.43
2023-04-16T14:13:35.308Z,8.18
2023-04-16T14:16:04.488Z,9.93
2023-04-16T14:18:34.249Z,7.47
2023-04-16T14:21:05.074Z,11.18
2023-04-16T14:23:33.877Z,9.43
2023-04-16T14:26:02.697Z,9.95
2023-04-16T14:28:35.587Z,11.98
2023-04-16T14:31:07.598Z,9.48
2023-04-16T14:33:36.171Z,8.10
2023-04-16T14:36:05.289Z,10.35
2023-04-16T14:38:34.188Z,9.75
2023-04-16T14:41:05.152Z,12.05
2023-04-16T14:43:35.749Z,8.60
2023-04-16T14:46:06.303Z,7.10
2023-04-16T14:48:35.254Z,6.57
2023-04-16T14:51:03.522Z,6.15
2023-04-16T14:53:36.072Z,10.73
2023-04-16T14:56:05.014Z,8.63
2023-04-16T14:58:37.307Z,8.65
2023-04-16T15:01:08.854Z,5.97
2023-04-16T15:03:37.996Z,8.32
2023-04-16T15:06:06.723Z,7.78
2023-04-16T15:08:36.808Z,6.55
2023-04-16T15:11:07.510Z,7.97
2023-04-16T15:13:38.559Z,7.70
2023-04-16T15:16:06.929Z,6.35
2023-04-16T15:18:35.536Z,6.30
2023-04-16T15:21:04.679Z,5.78
2023-04-16T15:23:34.936Z,5.50
2023-04-16T15:26:03.667Z,6.00
2023-04-16T15:28:33.420Z,6.43
2023-04-16T15:31:02.531Z,6.10
2023-04-16T15:33:31.162Z,5.97
2023-04-16T15:35:59.691Z,8.38
2023-04-16T15:38:29.774Z,6.82
2023-04-16T15:41:01.583Z,7.45
2023-04-16T15:43:31.503Z,7.22
2023-04-16T15:46:02.984Z,5.10
2023-04-16T15:48:34.097Z,5.10
2023-04-16T15:51:02.640Z,5.97
2023-04-16T15:53:32.204Z,5.13
2023-04-16T15:56:01.535Z,6.18
2023-04-16T15:58:31.345Z,7.65
2023-04-16T16:01:04.211Z,6.18
2023-04-16T16:03:52.076Z,5.35
2023-04-16T16:06:23.960Z,6.20
2023-04-16T16:08:52.777Z,5.82
2023-04-16T16:11:21.308Z,5.90
2023-04-16T16:13:50.005Z,4.35
2023-04-16T16:16:19.544Z,4.28
2023-04-16T16:18:48.771Z,5.55
2023-04-16T16:21:20.667Z,5.57
2023-04-16T16:23:49.076Z,6.72
2023-04-16T16:26:18.279Z,7.10
2023-04-16T16:28:50.188Z,5.50
2023-04-16T16:31:18.827Z,7.82
2023-04-16T16:33:50.943Z,7.15
2023-04-16T16:36:19.383Z,12.30
2023-04-16T16:38:48.430Z,14.73
2023-04-16T17:49:37.071Z,14.18
2023-04-16T17:52:05.936Z,15.18
2023-04-16T17:54:34.587Z,13.13
2023-04-16T17:57:03.224Z,14.60
2023-04-16T17:59:31.497Z,11.43
2023-04-16T18:02:00.734Z,13.98
2023-04-16T18:04:29.545Z,11.90
2023-04-16T18:06:58.204Z,13.05
2023-04-16T18:09:27.539Z,14.82
2023-04-16T18:11:58.446Z,16.05
2023-04-16T18:14:30.159Z,14.80
2023-04-16T18:17:03.068Z,14.00
2023-04-16T18:22:04.004Z,12.10
2023-04-16T18:24:33.382Z,16.83
2023-04-16T18:27:01.918Z,12.32
2023-04-16T18:29:33.873Z,15.95
2023-04-16T18:32:04.543Z,16.48
2023-04-16T18:34:35.057Z,17.38
2023-04-16T18:37:04.480Z,15.10
2023-04-16T18:39:33.954Z,15.02
2023-04-16T18:42:05.210Z,14.57
2023-04-16T18:44:33.577Z,12.30
2023-04-16T18:47:02.320Z,16.08
2023-04-16T18:49:31.747Z,11.68
2023-04-16T18:52:00.259Z,11.95
2023-04-16T18:54:31.157Z,15.35
2023-04-16T18:57:02.043Z,12.50
2023-04-16T18:59:34.664Z,12.82
2023-04-16T19:02:05.923Z,13.68
2023-04-16T19:04:38.564Z,11.00
2023-04-16T19:07:09.144Z,10.38
2023-04-16T19:09:40.865Z,8.18
2023-04-16T19:12:14.572Z,8.95
2023-04-16T19:14:43.095Z,6.47
2023-04-16T19:17:14.288Z,11.82
2023-04-16T19:19:45.855Z,9.98
2023-04-16T19:22:14.269Z,10.75
2023-04-16T19:24:42.753Z,9.00
2023-04-16T19:27:13.692Z,7.13
2023-04-16T19:29:43.560Z,12.93
2023-04-16T19:32:13.995Z,11.48
2023-04-16T19:34:43.236Z,8.82
2023-04-16T19:37:11.665Z,8.27
2023-04-16T19:39:40.219Z,18.08
2023-04-16T19:42:08.623Z,11.27
2023-04-16T19:44:42.391Z,9.48
2023-04-16T19:47:10.995Z,11.65
2023-04-16T19:49:43.588Z,9.35
2023-04-16T19:52:14.095Z,10.30
2023-04-16T19:54:45.307Z,9.10
2023-04-16T19:57:14.752Z,10.68
2023-04-16T19:59:43.292Z,12.63
2023-04-16T20:02:11.821Z,10.18
2023-04-16T20:04:42.879Z,11.02
2023-04-16T20:07:13.783Z,13.20
2023-04-16T20:09:42.575Z,14.43
2023-04-16T20:12:11.252Z,8.90
2023-04-16T20:14:43.965Z,8.82
2023-04-16T20:17:19.508Z,8.52
2023-04-16T20:19:49.552Z,7.63
2023-04-16T20:22:21.033Z,11.48
2023-04-16T20:24:55.074Z,8.00
2023-04-16T20:27:26.136Z,11.18
2023-04-16T20:29:55.367Z,8.15
2023-04-16T20:32:28.112Z,9.95
2023-04-16T20:34:57.369Z,8.20
2023-04-16T20:37:29.441Z,10.48
2023-04-16T20:40:00.697Z,7.75
2023-04-16T20:42:37.767Z,7.85
2023-04-16T20:45:07.208Z,14.82
2023-04-16T20:47:44.133Z,10.38
2023-04-16T20:50:13.662Z,9.88
2023-04-16T20:52:44.217Z,9.73
2023-04-16T20:55:13.230Z,9.35
2023-04-16T20:57:42.205Z,14.90
2023-04-16T21:00:12.355Z,9.73
2023-04-16T21:02:51.881Z,10.10
2023-04-16T21:05:21.349Z,10.52
2023-04-16T21:07:50.237Z,15.63
2023-04-16T21:10:20.439Z,12.50
2023-04-16T21:12:53.852Z,10.57
2023-04-16T21:15:22.308Z,11.55
2023-04-16T21:17:51.510Z,14.73
2023-04-16T21:20:22.772Z,12.93
2023-04-16T21:22:55.086Z,11.57
2023-04-16T21:25:26.628Z,15.25
2023-04-16T21:27:55.701Z,16.88
2023-04-16T21:30:24.409Z,11.63
2023-04-16T21:33:06.599Z,14.05
2023-04-16T21:35:35.861Z,13.10
2023-04-16T21:38:05.151Z,13.38
2023-04-16T21:40:34.153Z,19.50
2023-04-16T21:43:03.226Z,13.40
2023-04-16T21:45:31.953Z,15.13
2023-04-16T21:48:00.462Z,16.50
2023-04-16T21:50:33.071Z,15.15
2023-04-16T21:53:04.415Z,18.65
2023-04-16T21:55:35.910Z,15.68
2023-04-16T21:58:04.996Z,16.95
2023-04-16T22:00:33.783Z,18.80
2023-04-16T22:03:18.857Z,15.60
2023-04-16T22:05:47.324Z,16.45
2023-04-16T22:08:24.195Z,15.85
2023-04-16T22:10:59.988Z,14.70
2023-04-16T22:13:30.626Z,14.23
2023-04-16T22:18:33.651Z,14.70
2023-04-16T22:21:02.260Z,17.02
2023-04-16T22:23:31.938Z,20.75
2023-04-16T22:26:02.602Z,17.02
2023-04-16T22:28:32.308Z,15.82
2023-04-16T22:31:01.658Z,17.77
2023-04-16T22:33:32.352Z,14.77
2023-04-16T22:36:01.180Z,19.15
2023-04-16T22:38:31.545Z,16.73
2023-04-16T22:41:03.214Z,23.77
2023-04-16T22:43:37.043Z,22.33
2023-04-16T22:46:06.871Z,15.75
2023-04-16T22:48:38.900Z,20.08
2023-04-16T22:51:09.062Z,22.83
2023-04-16T22:53:38.112Z,15.63
2023-04-16T22:56:06.710Z,21.33
2023-04-16T22:58:37.117Z,17.13
2023-04-16T23:01:06.709Z,16.08
2023-04-16T23:03:44.392Z,23.35
2023-04-16T23:06:13.130Z,14.07
2023-04-16T23:08:42.309Z,16.25
2023-04-16T23:11:11.264Z,21.30
2023-04-16T23:13:39.761Z,18.02
2023-04-16T23:16:08.762Z,20.58
2023-04-16T23:18:37.754Z,18.35
2023-04-16T23:21:09.273Z,18.92
2023-04-16T23:24:03.448Z,21.17
2023-04-16T23:26:35.897Z,15.05
2023-04-16T23:29:09.134Z,19.53
2023-04-16T23:31:38.431Z,18.38
2023-04-16T23:34:06.866Z,19.05
2023-04-16T23:36:35.600Z,17.42
2023-04-16T23:39:04.488Z,19.27
2023-04-16T23:41:36.211Z,15.50
2023-04-16T23:44:05.105Z,19.42
2023-04-16T23:46:35.284Z,16.67
2023-04-16T23:49:03.703Z,19.52
2023-04-16T23:51:33.827Z,17.35
2023-04-16T23:54:02.980Z,18.73
2023-04-16T23:56:35.420Z,18.30
2023-04-16T23:59:04.023Z,21.50
